Time;durP1;ratioP1;P1;durP2;ratioP2;P2;SDS_P1;SDS_P2;PMS_P1;PMS_P2;Temp;Humidity;BMP_temperature;BMP_pressure;BME280_temperature;BME280_humidity;BME280_pressure;Samples;Min_cycle;Max_cycle;Signal;HPM_P1;HPM_P2
2022/07/18 00:00:05;;;;;;;12.00;7.90;;;;;;;;;;6292310;22;20019;-46
2022/07/18 00:02:32;;;;;;;9.50;6.53;;;;;;;;;;6285165;22;20034;-45
2022/07/18 00:04:59;;;;;;;8.02;5.20;;;;;;;;;;6295582;22;20011;-46
2022/07/18 00:07:26;;;;;;;7.75;5.47;;;;;;;;;;6286990;22;20017;-46
2022/07/18 00:09:52;;;;;;;17.10;10.38;;;;;;;;;;6296694;22;20015;-45
2022/07/18 00:12:19;;;;;;;20.10;11.63;;;;;;;;;;6292917;22;20015;-44
2022/07/18 00:14:46;;;;;;;16.40;10.70;;;;;;;;;;6285934;22;20015;-45
2022/07/18 00:17:12;;;;;;;15.10;10.63;;;;;;;;;;6295625;22;20039;-48
2022/07/18 00:19:39;;;;;;;17.25;10.75;;;;;;;;;;6292423;22;20072;-45
2022/07/18 00:22:07;;;;;;;15.45;10.65;;;;;;;;;;6302702;22;20023;-47
2022/07/18 00:24:34;;;;;;;14.13;10.25;;;;;;;;;;6291854;22;20086;-44
2022/07/18 00:27:00;;;;;;;14.85;9.90;;;;;;;;;;6295896;22;20019;-45
2022/07/18 00:29:27;;;;;;;16.40;10.50;;;;;;;;;;6291552;22;20535;-47
2022/07/18 00:31:53;;;;;;;16.45;10.45;;;;;;;;;;6283167;22;20015;-43
2022/07/18 00:34:21;;;;;;;14.00;9.55;;;;;;;;;;6285453;22;20018;-44
2022/07/18 00:36:47;;;;;;;17.45;10.20;;;;;;;;;;6297742;22;20011;-46
2022/07/18 00:39:15;;;;;;;18.80;9.50;;;;;;;;;;6289893;22;20022;-47
2022/07/18 00:41:45;;;;;;;15.50;8.23;;;;;;;;;;6293750;22;20025;-43
2022/07/18 00:44:16;;;;;;;11.25;6.50;;;;;;;;;;6288274;22;20015;-45
2022/07/18 00:46:43;;;;;;;11.48;6.55;;;;;;;;;;6296857;22;20018;-48
2022/07/18 00:49:09;;;;;;;9.35;6.65;;;;;;;;;;6282053;22;20015;-45
2022/07/18 00:51:38;;;;;;;9.30;5.85;;;;;;;;;;6294915;22;20023;-46
2022/07/18 00:54:04;;;;;;;9.85;5.97;;;;;;;;;;6290493;22;20011;-50
2022/07/18 00:56:34;;;;;;;7.30;4.85;;;;;;;;;;6297702;22;20011;-45
2022/07/18 00:59:01;;;;;;;7.05;5.43;;;;;;;;;;6284335;22;20034;-45
2022/07/18 01:01:47;;;;;;;7.60;5.40;;;;;;;;;;6297851;22;20179;-45
2022/07/18 01:04:15;;;;;;;7.20;5.28;;;;;;;;;;6290209;22;20028;-47
2022/07/18 01:06:42;;;;;;;6.63;4.97;;;;;;;;;;6295999;22;20069;-45
2022/07/18 01:09:08;;;;;;;8.77;5.47;;;;;;;;;;6280209;22;20022;-47
2022/07/18 01:11:36;;;;;;;8.68;6.22;;;;;;;;;;6294472;22;20015;-46
2022/07/18 01:14:03;;;;;;;8.82;6.13;;;;;;;;;;6292253;22;20012;-45
2022/07/18 01:16:30;;;;;;;9.15;6.00;;;;;;;;;;6299350;22;20019;-49
2022/07/18 01:18:57;;;;;;;9.93;6.03;;;;;;;;;;6292502;22;20272;-45
2022/07/18 01:21:27;;;;;;;9.63;5.82;;;;;;;;;;6291751;22;20397;-46
2022/07/18 01:23:53;;;;;;;8.68;5.75;;;;;;;;;;6297200;22;20301;-47
2022/07/18 01:26:20;;;;;;;7.95;5.22;;;;;;;;;;6293830;22;20011;-44
2022/07/18 01:28:47;;;;;;;7.78;5.22;;;;;;;;;;6295494;22;20019;-45
2022/07/18 01:31:13;;;;;;;10.00;4.85;;;;;;;;;;6289191;22;20039;-46
2022/07/18 01:33:40;;;;;;;6.07;4.72;;;;;;;;;;6293979;22;20064;-45
2022/07/18 01:36:07;;;;;;;5.25;4.15;;;;;;;;;;6289115;22;20015;-47
2022/07/18 01:38:36;;;;;;;8.07;4.93;;;;;;;;;;6296689;22;20015;-43
2022/07/18 01:41:03;;;;;;;8.15;4.70;;;;;;;;;;6287982;22;20015;-45
2022/07/18 01:43:29;;;;;;;6.75;4.72;;;;;;;;;;6296893;22;20026;-46
2022/07/18 01:45:56;;;;;;;5.18;3.70;;;;;;;;;;6286248;22;20112;-45
2022/07/18 01:48:23;;;;;;;5.20;4.20;;;;;;;;;;6295349;22;20008;-45
2022/07/18 01:50:50;;;;;;;7.60;4.28;;;;;;;;;;6284619;22;20489;-45
2022/07/18 01:53:17;;;;;;;6.95;4.28;;;;;;;;;;6295079;22;20060;-45
2022/07/18 01:55:45;;;;;;;6.55;4.30;;;;;;;;;;6273305;22;20390;-45
2022/07/18 01:58:11;;;;;;;6.00;4.15;;;;;;;;;;6299247;22;20049;-45
2022/07/18 02:00:38;;;;;;;6.45;4.70;;;;;;;;;;6293959;22;20011;-47
2022/07/18 02:03:04;;;;;;;6.40;4.63;;;;;;;;;;6287977;22;20025;-46
2022/07/18 02:05:31;;;;;;;7.32;3.90;;;;;;;;;;6299537;22;20011;-46
2022/07/18 02:07:57;;;;;;;5.82;4.45;;;;;;;;;;6284721;22;20023;-48
2022/07/18 02:10:24;;;;;;;5.55;3.58;;;;;;;;;;6292884;22;20016;-46
2022/07/18 02:12:52;;;;;;;5.53;3.97;;;;;;;;;;6293291;22;20015;-47
2022/07/18 02:15:19;;;;;;;7.57;3.55;;;;;;;;;;6281435;22;20012;-43
2022/07/18 02:17:45;;;;;;;7.07;4.10;;;;;;;;;;6294984;22;20041;-45
2022/07/18 02:20:14;;;;;;;4.90;4.20;;;;;;;;;;6289385;22;20026;-43
2022/07/18 02:22:40;;;;;;;7.22;4.07;;;;;;;;;;6291425;22;20045;-47
2022/07/18 02:25:07;;;;;;;5.82;4.15;;;;;;;;;;6297169;22;20015;-45
2022/07/18 02:27:34;;;;;;;5.80;4.03;;;;;;;;;;6281197;22;20487;-44
2022/07/18 02:30:02;;;;;;;6.68;4.22;;;;;;;;;;6295815;22;20015;-46
2022/07/18 02:32:28;;;;;;;5.28;4.22;;;;;;;;;;6273970;22;20049;-45
2022/07/18 02:34:55;;;;;;;6.07;3.88;;;;;;;;;;6292241;22;20037;-45
2022/07/18 02:37:21;;;;;;;6.25;4.05;;;;;;;;;;6296263;22;20016;-46
2022/07/18 02:39:48;;;;;;;4.18;3.65;;;;;;;;;;6294671;22;20031;-46
2022/07/18 02:42:15;;;;;;;3.90;3.20;;;;;;;;;;6299943;22;20615;-44
2022/07/18 02:44:41;;;;;;;4.72;3.17;;;;;;;;;;6285305;22;20031;-45
2022/07/18 02:47:09;;;;;;;4.45;3.50;;;;;;;;;;6276388;22;20378;-45
2022/07/18 02:49:38;;;;;;;4.78;3.35;;;;;;;;;;6297503;22;20072;-46
2022/07/18 02:52:09;;;;;;;6.75;3.75;;;;;;;;;;6296314;22;20045;-45
2022/07/18 02:54:36;;;;;;;4.47;3.20;;;;;;;;;;6298571;22;20070;-42
2022/07/18 02:57:03;;;;;;;4.70;3.45;;;;;;;;;;6294594;22;20011;-45
2022/07/18 02:59:30;;;;;;;5.10;3.53;;;;;;;;;;6293554;22;20019;-46
2022/07/18 03:01:56;;;;;;;5.40;3.92;;;;;;;;;;6279820;22;20481;-46
2022/07/18 03:04:25;;;;;;;4.00;3.30;;;;;;;;;;6296120;22;20011;-46
2022/07/18 03:06:51;;;;;;;4.15;3.72;;;;;;;;;;6299074;22;20012;-46
2022/07/18 03:09:18;;;;;;;4.10;3.45;;;;;;;;;;6287704;22;20041;-48
2022/07/18 03:11:45;;;;;;;6.88;3.83;;;;;;;;;;6300625;22;20015;-46
2022/07/18 03:14:11;;;;;;;5.95;3.95;;;;;;;;;;6284760;22;20032;-46
2022/07/18 03:16:38;;;;;;;5.13;3.65;;;;;;;;;;6299200;22;20011;-44
2022/07/18 03:19:04;;;;;;;8.30;4.00;;;;;;;;;;6289712;22;20019;-46
2022/07/18 03:21:32;;;;;;;5.68;3.63;;;;;;;;;;6301840;22;20011;-47
2022/07/18 03:23:59;;;;;;;6.35;5.03;;;;;;;;;;6292291;22;20030;-47
2022/07/18 03:26:25;;;;;;;5.57;4.10;;;;;;;;;;6298679;22;20015;-47
2022/07/18 03:28:52;;;;;;;7.65;3.50;;;;;;;;;;6287994;22;20090;-46
2022/07/18 03:31:18;;;;;;;4.82;3.45;;;;;;;;;;6299013;22;20015;-47
2022/07/18 03:33:45;;;;;;;4.43;3.72;;;;;;;;;;6291282;22;20466;-45
2022/07/18 03:36:12;;;;;;;5.90;4.10;;;;;;;;;;6280399;22;20166;-44
2022/07/18 03:38:42;;;;;;;4.30;3.55;;;;;;;;;;6294136;22;20015;-48
2022/07/18 03:41:09;;;;;;;4.05;3.58;;;;;;;;;;6285899;22;20019;-44
2022/07/18 03:43:36;;;;;;;5.78;3.65;;;;;;;;;;6302517;22;20765;-45
2022/07/18 03:46:03;;;;;;;5.78;4.00;;;;;;;;;;6284854;22;20039;-44
2022/07/18 03:48:29;;;;;;;4.47;3.67;;;;;;;;;;6299255;22;20012;-49
2022/07/18 03:50:59;;;;;;;5.50;3.35;;;;;;;;;;6288924;22;20045;-46
2022/07/18 03:53:26;;;;;;;4.95;3.45;;;;;;;;;;6287122;22;20007;-45
2022/07/18 03:55:54;;;;;;;5.97;3.50;;;;;;;;;;6291575;22;20030;-46
2022/07/18 03:58:20;;;;;;;5.70;3.60;;;;;;;;;;6298569;22;20037;-45
2022/07/18 04:00:47;;;;;;;5.45;3.38;;;;;;;;;;6284001;22;20030;-45
2022/07/18 04:03:13;;;;;;;4.82;3.33;;;;;;;;;;6289703;22;20019;-48
2022/07/18 04:05:40;;;;;;;5.00;3.47;;;;;;;;;;6276492;22;20416;-48
2022/07/18 04:08:07;;;;;;;4.70;3.65;;;;;;;;;;6298947;22;20030;-43
2022/07/18 04:10:33;;;;;;;4.13;3.72;;;;;;;;;;6295513;22;20106;-46
2022/07/18 04:13:01;;;;;;;3.97;3.17;;;;;;;;;;6296223;22;20012;-46
2022/07/18 04:15:28;;;;;;;4.25;3.03;;;;;;;;;;6296649;22;20012;-49
2022/07/18 04:17:54;;;;;;;4.68;3.63;;;;;;;;;;6294841;22;20011;-45
2022/07/18 04:20:22;;;;;;;4.82;3.45;;;;;;;;;;6282518;22;20012;-44
2022/07/18 04:22:50;;;;;;;6.43;4.32;;;;;;;;;;6295579;22;20019;-46
2022/07/18 04:25:17;;;;;;;7.38;3.40;;;;;;;;;;6284418;22;20402;-48
2022/07/18 04:27:43;;;;;;;5.65;3.30;;;;;;;;;;6293610;22;20071;-46
2022/07/18 04:30:11;;;;;;;4.43;3.47;;;;;;;;;;6297517;22;20068;-46
2022/07/18 04:32:38;;;;;;;5.28;4.05;;;;;;;;;;6295486;22;20015;-45
2022/07/18 04:35:05;;;;;;;5.72;3.65;;;;;;;;;;6290118;22;20026;-45
2022/07/18 04:37:32;;;;;;;5.30;3.22;;;;;;;;;;6297864;22;20011;-45
2022/07/18 04:39:58;;;;;;;6.18;3.88;;;;;;;;;;6290278;22;20410;-48
2022/07/18 04:42:25;;;;;;;6.85;3.60;;;;;;;;;;6294939;22;20015;-45
2022/07/18 04:44:51;;;;;;;6.35;3.55;;;;;;;;;;6292754;22;20011;-44
2022/07/18 04:47:19;;;;;;;5.57;3.78;;;;;;;;;;6293990;22;20015;-44
2022/07/18 04:49:46;;;;;;;4.78;3.53;;;;;;;;;;6288869;22;20022;-46
2022/07/18 04:52:12;;;;;;;6.05;3.78;;;;;;;;;;6285376;22;20012;-49
2022/07/18 04:54:39;;;;;;;5.78;3.83;;;;;;;;;;6296718;22;20018;-45
2022/07/18 04:57:05;;;;;;;7.57;4.72;;;;;;;;;;6297477;22;20015;-46
2022/07/18 04:59:32;;;;;;;9.25;4.55;;;;;;;;;;6292350;22;20015;-45
2022/07/18 05:01:59;;;;;;;6.10;4.15;;;;;;;;;;6292353;22;20015;-45
2022/07/18 05:04:27;;;;;;;5.07;3.83;;;;;;;;;;6293822;22;20079;-47
2022/07/18 05:06:53;;;;;;;5.72;3.85;;;;;;;;;;6294258;22;20264;-46
2022/07/18 05:09:20;;;;;;;5.03;4.18;;;;;;;;;;6297029;22;20018;-46
2022/07/18 05:11:46;;;;;;;7.22;4.20;;;;;;;;;;6285102;22;20271;-46
2022/07/18 05:14:13;;;;;;;6.88;4.60;;;;;;;;;;6293436;22;20018;-47
2022/07/18 05:16:40;;;;;;;5.82;4.20;;;;;;;;;;6292496;22;20015;-45
2022/07/18 05:19:06;;;;;;;4.95;4.40;;;;;;;;;;6290434;22;20340;-46
2022/07/18 05:21:35;;;;;;;6.72;3.92;;;;;;;;;;6289392;22;20025;-47
2022/07/18 05:24:01;;;;;;;7.20;4.35;;;;;;;;;;6294380;22;20311;-46
2022/07/18 05:26:28;;;;;;;6.10;4.22;;;;;;;;;;6292152;22;20026;-44
2022/07/18 05:28:54;;;;;;;6.53;4.75;;;;;;;;;;6288848;22;20022;-48
2022/07/18 05:31:20;;;;;;;5.10;3.90;;;;;;;;;;6288111;22;20033;-47
2022/07/18 05:33:47;;;;;;;7.57;4.22;;;;;;;;;;6294030;22;20015;-45
2022/07/18 05:36:14;;;;;;;5.50;4.35;;;;;;;;;;6283684;22;20037;-45
2022/07/18 05:38:41;;;;;;;4.47;3.90;;;;;;;;;;6293908;22;20011;-46
2022/07/18 05:41:08;;;;;;;5.35;4.20;;;;;;;;;;6294727;22;20015;-46
2022/07/18 05:43:35;;;;;;;6.38;4.78;;;;;;;;;;6293729;22;20034;-46
2022/07/18 05:46:01;;;;;;;7.78;4.32;;;;;;;;;;6293457;22;20093;-44
2022/07/18 05:48:27;;;;;;;7.15;4.15;;;;;;;;;;6300330;22;20015;-46
2022/07/18 05:50:54;;;;;;;7.88;4.40;;;;;;;;;;6290409;22;20015;-45
2022/07/18 05:53:20;;;;;;;7.50;4.32;;;;;;;;;;6289442;22;20019;-47
2022/07/18 05:55:48;;;;;;;6.72;4.13;;;;;;;;;;6302863;22;20065;-48
2022/07/18 05:58:15;;;;;;;6.68;4.30;;;;;;;;;;6288347;22;20011;-46
2022/07/18 06:00:41;;;;;;;5.22;4.13;;;;;;;;;;6297379;22;20012;-46
2022/07/18 06:03:08;;;;;;;7.93;4.38;;;;;;;;;;6288681;22;20016;-50
2022/07/18 06:05:34;;;;;;;6.13;4.45;;;;;;;;;;6300477;22;20037;-49
2022/07/18 06:08:01;;;;;;;12.07;4.75;;;;;;;;;;6287079;22;20011;-45
2022/07/18 06:10:28;;;;;;;8.73;4.07;;;;;;;;;;6295842;22;20007;-46
2022/07/18 06:12:56;;;;;;;7.13;4.15;;;;;;;;;;6281380;22;20018;-46
2022/07/18 06:15:22;;;;;;;7.55;4.32;;;;;;;;;;6295973;22;20019;-46
2022/07/18 06:17:49;;;;;;;8.73;4.78;;;;;;;;;;6287553;22;20407;-50
2022/07/18 06:20:16;;;;;;;8.35;4.70;;;;;;;;;;6297491;22;20011;-46
2022/07/18 06:22:42;;;;;;;5.70;4.68;;;;;;;;;;6289476;22;20015;-45
2022/07/18 06:25:09;;;;;;;5.82;3.55;;;;;;;;;;6293993;22;20019;-46
2022/07/18 06:27:36;;;;;;;7.30;5.30;;;;;;;;;;6292501;22;20011;-44
2022/07/18 06:30:05;;;;;;;7.75;4.30;;;;;;;;;;6282622;22;20011;-45
2022/07/18 06:32:32;;;;;;;6.40;4.43;;;;;;;;;;6294452;22;20016;-47
2022/07/18 06:34:59;;;;;;;5.95;4.00;;;;;;;;;;6295855;22;20150;-47
2022/07/18 06:37:25;;;;;;;7.32;4.05;;;;;;;;;;6295674;22;20445;-45
2022/07/18 06:39:52;;;;;;;5.68;4.25;;;;;;;;;;6296582;22;20011;-48
2022/07/18 06:42:18;;;;;;;7.22;4.63;;;;;;;;;;6283990;22;20019;-46
2022/07/18 06:44:46;;;;;;;5.90;4.18;;;;;;;;;;6294560;22;20011;-48
2022/07/18 06:47:15;;;;;;;6.32;4.10;;;;;;;;;;6287619;22;20022;-46
2022/07/18 06:49:41;;;;;;;7.28;3.83;;;;;;;;;;6299482;22;20015;-46
2022/07/18 06:52:11;;;;;;;9.05;4.68;;;;;;;;;;6292277;22;20011;-45
2022/07/18 06:54:38;;;;;;;6.38;4.18;;;;;;;;;;6297780;22;20023;-46
2022/07/18 06:57:06;;;;;;;9.18;3.78;;;;;;;;;;6297679;22;20015;-47
2022/07/18 06:59:33;;;;;;;4.85;3.33;;;;;;;;;;6282733;22;20011;-47
2022/07/18 07:02:00;;;;;;;9.85;4.07;;;;;;;;;;6293786;22;20011;-45
2022/07/18 07:04:28;;;;;;;8.48;4.20;;;;;;;;;;6292237;22;20092;-47
2022/07/18 07:06:54;;;;;;;3.80;3.40;;;;;;;;;;6291555;22;20601;-48
2022/07/18 07:09:21;;;;;;;4.57;3.53;;;;;;;;;;6297125;22;20038;-47
2022/07/18 07:11:47;;;;;;;7.68;3.97;;;;;;;;;;6295057;22;20431;-47
2022/07/18 07:14:14;;;;;;;5.47;3.65;;;;;;;;;;6299083;22;20037;-44
2022/07/18 07:16:40;;;;;;;7.90;4.07;;;;;;;;;;6287627;22;20011;-48
2022/07/18 07:19:07;;;;;;;7.70;3.83;;;;;;;;;;6298627;22;20622;-46
2022/07/18 07:21:35;;;;;;;5.30;3.45;;;;;;;;;;6291559;22;20171;-47
2022/07/18 07:24:02;;;;;;;4.47;3.40;;;;;;;;;;6292004;22;20019;-47
2022/07/18 07:26:28;;;;;;;6.40;4.10;;;;;;;;;;6295281;22;20026;-43
2022/07/18 07:28:54;;;;;;;8.27;5.20;;;;;;;;;;6288933;22;20015;-48
2022/07/18 07:31:21;;;;;;;6.70;3.95;;;;;;;;;;6289719;22;20070;-48
2022/07/18 07:33:47;;;;;;;3.50;2.92;;;;;;;;;;6286433;22;20015;-49
2022/07/18 07:36:14;;;;;;;5.45;3.58;;;;;;;;;;6289221;22;20015;-43
2022/07/18 07:38:42;;;;;;;6.88;4.20;;;;;;;;;;6284757;22;20037;-47
2022/07/18 07:41:09;;;;;;;6.85;3.53;;;;;;;;;;6294659;22;20072;-48
2022/07/18 07:43:38;;;;;;;4.97;3.70;;;;;;;;;;6287576;22;20291;-46
2022/07/18 07:46:04;;;;;;;6.47;3.40;;;;;;;;;;6277172;22;20035;-44
2022/07/18 07:48:31;;;;;;;6.35;3.53;;;;;;;;;;6291360;22;20019;-47
2022/07/18 07:50:58;;;;;;;9.27;3.40;;;;;;;;;;6293778;22;20018;-44
2022/07/18 07:53:24;;;;;;;4.53;3.17;;;;;;;;;;6279924;22;20041;-44
2022/07/18 07:55:52;;;;;;;6.00;3.20;;;;;;;;;;6299913;22;20026;-44
2022/07/18 07:58:18;;;;;;;9.77;3.30;;;;;;;;;;6275797;22;20083;-46
2022/07/18 08:00:45;;;;;;;8.07;3.17;;;;;;;;;;6287268;22;20019;-44
2022/07/18 08:03:11;;;;;;;6.93;3.10;;;;;;;;;;6282504;22;20015;-45
2022/07/18 08:05:39;;;;;;;6.22;3.08;;;;;;;;;;6272583;22;20030;-47
2022/07/18 08:08:06;;;;;;;3.60;2.72;;;;;;;;;;6284790;22;20011;-44
2022/07/18 08:10:33;;;;;;;5.18;3.22;;;;;;;;;;6280801;22;20011;-45
2022/07/18 08:13:02;;;;;;;3.45;2.60;;;;;;;;;;6293748;22;20076;-45
2022/07/18 08:15:29;;;;;;;7.53;3.13;;;;;;;;;;6297423;22;20015;-43
2022/07/18 08:17:55;;;;;;;4.72;2.70;;;;;;;;;;6290425;22;20330;-47
2022/07/18 08:20:22;;;;;;;4.97;3.35;;;;;;;;;;6289661;22;20012;-44
2022/07/18 08:22:53;;;;;;;4.90;2.83;;;;;;;;;;6294533;22;20026;-45
2022/07/18 08:25:19;;;;;;;3.38;2.22;;;;;;;;;;6287999;22;20023;-49
2022/07/18 08:27:46;;;;;;;5.28;3.00;;;;;;;;;;6295437;22;20011;-43
2022/07/18 08:30:13;;;;;;;5.88;2.60;;;;;;;;;;6286885;22;20011;-45
2022/07/18 08:32:40;;;;;;;6.47;2.30;;;;;;;;;;6293183;22;20026;-43
2022/07/18 08:35:07;;;;;;;6.07;2.70;;;;;;;;;;6290450;22;20045;-47
2022/07/18 08:37:33;;;;;;;3.47;2.92;;;;;;;;;;6295536;22;20080;-47
2022/07/18 08:40:00;;;;;;;4.70;2.88;;;;;;;;;;6295680;22;20018;-44
2022/07/18 08:42:27;;;;;;;2.78;2.47;;;;;;;;;;6288332;22;20685;-44
2022/07/18 08:44:55;;;;;;;5.90;3.30;;;;;;;;;;6294231;22;20098;-46
2022/07/18 08:47:24;;;;;;;5.60;3.15;;;;;;;;;;6280044;22;20011;-45
2022/07/18 08:49:50;;;;;;;7.13;3.08;;;;;;;;;;6304399;22;20037;-47
2022/07/18 08:52:17;;;;;;;5.15;2.67;;;;;;;;;;6288305;22;20031;-47
2022/07/18 08:54:43;;;;;;;3.15;2.47;;;;;;;;;;6295537;22;20368;-48
2022/07/18 08:57:10;;;;;;;4.35;2.70;;;;;;;;;;6295387;22;20021;-46
2022/07/18 08:59:36;;;;;;;11.05;2.42;;;;;;;;;;6285458;22;20012;-48
2022/07/18 09:02:03;;;;;;;5.22;2.67;;;;;;;;;;6294200;22;20015;-46
2022/07/18 09:04:34;;;;;;;4.85;2.60;;;;;;;;;;6286931;22;20046;-44
2022/07/18 09:07:03;;;;;;;4.60;2.80;;;;;;;;;;6290273;22;20015;-47
2022/07/18 09:09:29;;;;;;;5.43;3.00;;;;;;;;;;6295694;22;20021;-45
2022/07/18 09:11:57;;;;;;;3.45;2.97;;;;;;;;;;6277729;22;20292;-47
2022/07/18 09:14:33;;;;;;;4.20;2.85;;;;;;;;;;6294052;22;20015;-45
2022/07/18 09:17:01;;;;;;;4.40;2.50;;;;;;;;;;6290346;22;20011;-50
2022/07/18 09:19:27;;;;;;;4.20;2.97;;;;;;;;;;6294944;22;20068;-45
2022/07/18 09:22:11;;;;;;;4.55;2.63;;;;;;;;;;6288333;22;20019;-45
2022/07/18 09:24:49;;;;;;;4.63;2.35;;;;;;;;;;6289356;22;20022;-45
2022/07/18 09:27:23;;;;;;;4.15;2.40;;;;;;;;;;6291965;22;20449;-47
2022/07/18 09:29:52;;;;;;;4.88;2.67;;;;;;;;;;6292095;22;20015;-47
2022/07/18 09:32:22;;;;;;;4.20;2.70;;;;;;;;;;6294312;22;20015;-49
2022/07/18 09:34:49;;;;;;;3.22;2.67;;;;;;;;;;6292736;22;20073;-45
2022/07/18 09:37:16;;;;;;;4.38;2.60;;;;;;;;;;6295012;22;20297;-46
2022/07/18 09:39:43;;;;;;;3.90;2.90;;;;;;;;;;6294502;22;20011;-47
2022/07/18 09:42:13;;;;;;;3.38;2.40;;;;;;;;;;6282869;22;20019;-44
2022/07/18 09:44:40;;;;;;;4.78;2.67;;;;;;;;;;6295474;22;20045;-46
2022/07/18 09:47:07;;;;;;;3.55;2.38;;;;;;;;;;6293357;22;20053;-43
2022/07/18 09:49:34;;;;;;;3.58;2.40;;;;;;;;;;6294064;22;20015;-45
2022/07/18 09:52:02;;;;;;;4.35;2.45;;;;;;;;;;6291498;22;20243;-46
2022/07/18 09:54:37;;;;;;;2.50;2.13;;;;;;;;;;6293942;22;20065;-46
2022/07/18 09:57:03;;;;;;;5.05;2.72;;;;;;;;;;6294506;22;20015;-48
2022/07/18 09:59:30;;;;;;;5.30;2.40;;;;;;;;;;6292814;22;20015;-45
2022/07/18 10:01:57;;;;;;;4.72;2.38;;;;;;;;;;6283167;22;20079;-49
2022/07/18 10:04:24;;;;;;;4.03;2.45;;;;;;;;;;6289606;22;20015;-46
2022/07/18 10:06:50;;;;;;;4.38;2.28;;;;;;;;;;6281944;22;20022;-47
2022/07/18 10:09:17;;;;;;;3.10;2.42;;;;;;;;;;6275905;22;20019;-47
2022/07/18 10:11:45;;;;;;;5.45;2.58;;;;;;;;;;6300290;22;20067;-47
2022/07/18 10:14:12;;;;;;;2.47;2.10;;;;;;;;;;6285058;22;20220;-46
2022/07/18 10:16:39;;;;;;;4.30;2.67;;;;;;;;;;6299069;22;20015;-46
2022/07/18 10:19:05;;;;;;;2.75;2.20;;;;;;;;;;6282267;22;20023;-45
2022/07/18 10:21:32;;;;;;;4.70;2.38;;;;;;;;;;6295758;22;20023;-46
2022/07/18 10:24:01;;;;;;;2.90;2.42;;;;;;;;;;6286854;22;20015;-44
2022/07/18 10:26:30;;;;;;;5.47;2.60;;;;;;;;;;6292500;22;20024;-46
2022/07/18 10:29:16;;;;;;;3.50;2.58;;;;;;;;;;6294195;22;20278;-49
2022/07/18 10:31:58;;;;;;;7.85;2.40;;;;;;;;;;6289131;22;20021;-48
2022/07/18 10:34:29;;;;;;;4.22;2.65;;;;;;;;;;6292531;22;20076;-44
2022/07/18 10:37:08;;;;;;;3.92;2.38;;;;;;;;;;6284198;22;20011;-45
2022/07/18 10:39:35;;;;;;;2.53;2.20;;;;;;;;;;6292247;22;20011;-46
2022/07/18 10:42:19;;;;;;;4.43;1.80;;;;;;;;;;6293802;22;20015;-44
2022/07/18 10:44:48;;;;;;;4.45;2.13;;;;;;;;;;6292341;22;20015;-43
2022/07/18 10:47:20;;;;;;;2.97;1.88;;;;;;;;;;6289391;22;20084;-51
2022/07/18 10:50:04;;;;;;;3.88;1.88;;;;;;;;;;6296273;22;20035;-46
2022/07/18 10:52:49;;;;;;;2.67;1.90;;;;;;;;;;6293822;22;20019;-45
2022/07/18 10:55:31;;;;;;;2.67;2.08;;;;;;;;;;6294783;22;20015;-46
2022/07/18 10:58:20;;;;;;;4.35;2.00;;;;;;;;;;6284391;22;20038;-58
2022/07/18 11:00:53;;;;;;;2.28;2.00;;;;;;;;;;6296577;22;20154;-58
2022/07/18 11:03:26;;;;;;;2.58;1.88;;;;;;;;;;6289407;22;20038;-59
2022/07/18 11:05:54;;;;;;;4.15;2.08;;;;;;;;;;6287589;22;20310;-57
2022/07/18 11:08:24;;;;;;;3.05;2.05;;;;;;;;;;6294186;22;20098;-59
2022/07/18 11:11:07;;;;;;;6.63;2.28;;;;;;;;;;6288787;22;20015;-59
2022/07/18 11:13:35;;;;;;;3.17;1.83;;;;;;;;;;6291692;22;20074;-57
2022/07/18 11:16:05;;;;;;;3.45;1.85;;;;;;;;;;6293054;22;20031;-58
2022/07/18 11:18:33;;;;;;;3.33;1.75;;;;;;;;;;6272211;22;20453;-58
2022/07/18 11:20:59;;;;;;;3.20;2.10;;;;;;;;;;6273322;22;20473;-58
2022/07/18 11:23:26;;;;;;;4.30;2.08;;;;;;;;;;6291134;22;20047;-59
2022/07/18 11:25:54;;;;;;;3.80;1.80;;;;;;;;;;6289493;22;20023;-58
2022/07/18 11:28:21;;;;;;;1.73;1.60;;;;;;;;;;6291246;22;20025;-59
2022/07/18 11:30:59;;;;;;;2.92;1.95;;;;;;;;;;6277588;22;20079;-59
2022/07/18 11:33:28;;;;;;;2.65;2.00;;;;;;;;;;6295208;22;20011;-60
2022/07/18 11:35:54;;;;;;;;;;;;;;;;;;6291139;22;20011;-59
2022/07/18 11:38:21;;;;;;;2.42;1.48;;;;;;;;;;6292719;22;19918;-57
2022/07/18 11:40:48;;;;;;;3.83;1.70;;;;;;;;;;6291214;22;20022;-59
2022/07/18 11:43:20;;;;;;;3.38;1.50;;;;;;;;;;6294469;22;20026;-58
2022/07/18 11:45:46;;;;;;;2.90;1.83;;;;;;;;;;6277460;22;20023;-59
2022/07/18 11:48:21;;;;;;;5.57;1.65;;;;;;;;;;6290535;22;20050;-57
2022/07/18 11:50:49;;;;;;;1.40;1.30;;;;;;;;;;6288940;22;20088;-58
2022/07/18 11:53:17;;;;;;;2.28;1.60;;;;;;;;;;6287324;22;20015;-58
2022/07/18 11:55:43;;;;;;;2.42;1.35;;;;;;;;;;6300172;22;20104;-59
2022/07/18 11:58:10;;;;;;;3.42;1.45;;;;;;;;;;6256572;22;20077;-58
2022/07/18 12:00:38;;;;;;;1.85;1.70;;;;;;;;;;6289892;22;20121;-59
2022/07/18 12:03:09;;;;;;;1.77;1.45;;;;;;;;;;6289535;22;20019;-58
2022/07/18 12:05:36;;;;;;;1.77;1.30;;;;;;;;;;6259261;22;20029;-59
2022/07/18 12:08:18;;;;;;;2.47;1.38;;;;;;;;;;6256016;22;20213;-59
2022/07/18 12:11:03;;;;;;;1.65;1.55;;;;;;;;;;6259082;22;20427;-59
2022/07/18 12:13:39;;;;;;;2.40;1.35;;;;;;;;;;6257435;22;20015;-58
2022/07/18 12:16:06;;;;;;;3.08;1.77;;;;;;;;;;6260029;22;20053;-59
2022/07/18 12:18:33;;;;;;;2.15;1.85;;;;;;;;;;6256348;22;20011;-60
2022/07/18 12:21:07;;;;;;;1.33;1.23;;;;;;;;;;6257432;22;20011;-56
2022/07/18 12:23:33;;;;;;;2.53;1.10;;;;;;;;;;6297206;22;20042;-58
2022/07/18 12:26:02;;;;;;;1.30;1.17;;;;;;;;;;6289926;22;20015;-58
2022/07/18 12:28:29;;;;;;;2.88;1.00;;;;;;;;;;6296877;22;20630;-58
2022/07/18 12:30:56;;;;;;;3.50;1.60;;;;;;;;;;6281618;22;20582;-58
2022/07/18 12:33:22;;;;;;;1.38;1.13;;;;;;;;;;6297483;22;20017;-59
2022/07/18 12:35:55;;;;;;;1.63;0.98;;;;;;;;;;6293798;22;20046;-58
2022/07/18 12:38:22;;;;;;;2.50;1.38;;;;;;;;;;6291488;22;20011;-58
2022/07/18 12:40:52;;;;;;;1.65;1.30;;;;;;;;;;6291855;22;20020;-57
2022/07/18 12:43:25;;;;;;;1.67;0.98;;;;;;;;;;6294058;22;20015;-58
2022/07/18 12:45:52;;;;;;;2.45;1.25;;;;;;;;;;6291810;22;20023;-57
2022/07/18 12:48:19;;;;;;;1.98;1.08;;;;;;;;;;6294371;22;20076;-57
2022/07/18 12:50:45;;;;;;;0.80;0.80;;;;;;;;;;6286932;22;20015;-58
2022/07/18 12:53:12;;;;;;;3.95;0.90;;;;;;;;;;6288533;22;20048;-58
2022/07/18 12:55:39;;;;;;;1.20;1.10;;;;;;;;;;6296284;22;20221;-58
2022/07/18 12:58:06;;;;;;;2.88;0.90;;;;;;;;;;6285847;22;20037;-58
2022/07/18 13:00:34;;;;;;;3.03;1.00;;;;;;;;;;6297832;22;20037;-57
2022/07/18 13:03:01;;;;;;;3.13;1.00;;;;;;;;;;6287360;22;20019;-58
2022/07/18 13:05:28;;;;;;;0.80;0.80;;;;;;;;;;6301994;22;20020;-58
2022/07/18 13:07:55;;;;;;;6.65;1.25;;;;;;;;;;6284322;22;20078;-58
2022/07/18 13:10:21;;;;;;;1.52;0.90;;;;;;;;;;6295423;22;20012;-58
2022/07/18 13:12:48;;;;;;;2.70;1.15;;;;;;;;;;6287448;22;20015;-57
2022/07/18 13:15:15;;;;;;;1.00;0.90;;;;;;;;;;6297803;22;20046;-58
2022/07/18 13:17:42;;;;;;;2.47;0.95;;;;;;;;;;6291510;22;20050;-58
2022/07/18 13:20:09;;;;;;;2.38;1.13;;;;;;;;;;6298371;22;20215;-58
2022/07/18 13:22:38;;;;;;;1.90;1.23;;;;;;;;;;6287983;22;20012;-58
2022/07/18 13:25:05;;;;;;;1.98;1.10;;;;;;;;;;6296472;22;20015;-58
2022/07/18 13:27:32;;;;;;;5.07;1.05;;;;;;;;;;6287875;22;20011;-59
2022/07/18 13:30:00;;;;;;;1.38;1.08;;;;;;;;;;6295490;22;20041;-59
2022/07/18 13:32:27;;;;;;;1.70;0.97;;;;;;;;;;6281889;22;20031;-60
2022/07/18 13:34:55;;;;;;;3.05;1.20;;;;;;;;;;6298166;22;20387;-59
2022/07/18 13:37:21;;;;;;;1.35;1.10;;;;;;;;;;6281448;22;20075;-60
2022/07/18 13:39:48;;;;;;;1.25;0.90;;;;;;;;;;6295346;22;20077;-58
2022/07/18 13:42:14;;;;;;;1.75;1.10;;;;;;;;;;6288527;22;20020;-58
2022/07/18 13:44:41;;;;;;;2.50;1.13;;;;;;;;;;6294395;22;20011;-57
2022/07/18 13:47:08;;;;;;;1.30;1.20;;;;;;;;;;6294185;22;20019;-57
2022/07/18 13:49:34;;;;;;;1.50;1.25;;;;;;;;;;6262398;22;20097;-57
2022/07/18 13:52:02;;;;;;;0.98;0.93;;;;;;;;;;6253956;22;20345;-57
2022/07/18 13:54:30;;;;;;;1.45;1.35;;;;;;;;;;6259179;22;20037;-57
2022/07/18 13:56:58;;;;;;;1.30;1.08;;;;;;;;;;6258253;22;20016;-58
2022/07/18 13:59:25;;;;;;;2.40;1.33;;;;;;;;;;6253739;22;20496;-57
2022/07/18 14:01:52;;;;;;;1.52;1.08;;;;;;;;;;6259477;22;20019;-60
2022/07/18 14:04:18;;;;;;;1.00;0.90;;;;;;;;;;6292015;22;20065;-60
2022/07/18 14:06:45;;;;;;;1.70;1.55;;;;;;;;;;6287278;22;20023;-58
2022/07/18 14:09:13;;;;;;;1.60;1.35;;;;;;;;;;6291651;22;20015;-59
2022/07/18 14:11:40;;;;;;;1.50;1.30;;;;;;;;;;6279876;22;20022;-59
2022/07/18 14:14:06;;;;;;;1.30;1.20;;;;;;;;;;6290711;22;20015;-59
2022/07/18 14:16:33;;;;;;;3.13;1.20;;;;;;;;;;6278306;22;20684;-58
2022/07/18 14:18:59;;;;;;;0.98;0.93;;;;;;;;;;6297157;22;20023;-61
2022/07/18 14:21:26;;;;;;;3.58;1.70;;;;;;;;;;6291222;22;20267;-59
2022/07/18 14:23:54;;;;;;;4.68;1.40;;;;;;;;;;6293326;22;20424;-59
2022/07/18 14:26:22;;;;;;;1.42;1.00;;;;;;;;;;6290073;22;20721;-59
2022/07/18 14:28:48;;;;;;;0.65;0.65;;;;;;;;;;6296107;22;20015;-58
2022/07/18 14:31:15;;;;;;;1.05;1.05;;;;;;;;;;6286722;22;20499;-59
2022/07/18 14:33:42;;;;;;;1.00;0.95;;;;;;;;;;6294861;22;20357;-59
2022/07/18 14:36:09;;;;;;;1.33;0.95;;;;;;;;;;6280527;22;20023;-59
2022/07/18 14:38:35;;;;;;;1.30;1.17;;;;;;;;;;6293655;22;20022;-58
2022/07/18 14:41:02;;;;;;;0.98;0.98;;;;;;;;;;6290844;22;20393;-59
2022/07/18 14:43:30;;;;;;;2.10;0.90;;;;;;;;;;6295841;22;20016;-58
2022/07/18 14:45:56;;;;;;;1.80;0.90;;;;;;;;;;6291104;22;20023;-59